ENDH weather

Drammen Heliport, Hospital
Drammen, Buskerud, Norway

Public forecast

Using degrees Celsius for public forecast. Weather courtesy of forecast.io.

Closest aviation weather report (METAR) to Drammen Heliport, Hospital

Closest report is Oslo, Fornebu Airport, 15.5 nm (28.7 km) NE. Retrieved 2020/05/30 08:20 UTC (12 minutes ago):

ENFB 300820Z AUTO 17017KT 9999NDV NCD ///// Q//// W///S3

Closest aviation forecast (TAF) to Drammen Heliport, Hospital

Closest forecast is Moss Airport, Rygge, 28.5 nm (52.7 km) SE. Retrieved 2020/05/30 06:03 UTC (2 hours ago):

TAF TAF ENRY 300500Z 3006/3106 04008KT CAVOK